createdAt,value
2022-11-05T00:00:34.959Z,8.40
2022-11-05T00:03:20.473Z,8.40
2022-11-05T00:06:09.836Z,8.40
2022-11-05T00:08:54.937Z,8.40
2022-11-05T00:11:44.507Z,8.40
2022-11-05T00:14:30.419Z,8.40
2022-11-05T00:16:58.523Z,8.40
2022-11-05T00:19:26.799Z,8.30
2022-11-05T00:22:18.286Z,8.40
2022-11-05T00:25:03.729Z,8.40
2022-11-05T00:27:35.655Z,8.30
2022-11-05T00:30:04.025Z,8.30
2022-11-05T00:32:32.826Z,8.30
2022-11-05T00:35:01.062Z,8.30
2022-11-05T00:37:29.418Z,8.40
2022-11-05T00:39:57.615Z,8.40
2022-11-05T00:42:42.990Z,8.40
2022-11-05T00:45:12.837Z,8.40
2022-11-05T00:47:59.170Z,8.40
2022-11-05T00:50:27.531Z,8.40
2022-11-05T00:52:57.950Z,8.50
2022-11-05T00:55:29.068Z,8.50
2022-11-05T00:57:57.721Z,8.40
2022-11-05T01:00:29.347Z,8.40
2022-11-05T01:02:59.821Z,8.40
2022-11-05T01:05:28.839Z,8.40
2022-11-05T01:07:57.269Z,8.40
2022-11-05T01:10:26.036Z,8.40
2022-11-05T01:12:54.793Z,8.40
2022-11-05T01:15:23.367Z,8.30
2022-11-05T01:17:53.510Z,8.30
2022-11-05T01:20:21.643Z,8.30
2022-11-05T01:22:49.786Z,8.30
2022-11-05T01:25:18.132Z,8.30
2022-11-05T01:27:46.709Z,8.30
2022-11-05T01:30:15.274Z,8.30
2022-11-05T01:32:43.916Z,8.30
2022-11-05T01:35:16.863Z,8.30
2022-11-05T01:37:45.723Z,8.20
2022-11-05T01:40:15.803Z,8.20
2022-11-05T01:42:44.328Z,8.20
2022-11-05T01:45:16.441Z,8.20
2022-11-05T01:47:57.936Z,8.20
2022-11-05T01:50:35.635Z,8.10
2022-11-05T01:53:10.591Z,8.20
2022-11-05T01:55:43.281Z,8.10
2022-11-05T01:58:15.014Z,8.20
2022-11-05T02:00:44.804Z,8.20
2022-11-05T02:03:16.189Z,8.10
2022-11-05T02:05:47.272Z,8.10
2022-11-05T02:08:21.666Z,8.10
2022-11-05T02:10:50.531Z,8.10
2022-11-05T02:13:18.690Z,8.10
2022-11-05T02:15:56.213Z,8.10
2022-11-05T02:18:37.653Z,8.10
2022-11-05T02:21:23.106Z,8.10
2022-11-05T02:24:18.807Z,8.10
2022-11-05T02:27:19.995Z,8.10
2022-11-05T02:30:06.799Z,8.10
2022-11-05T02:32:49.706Z,8.10
2022-11-05T02:35:29.250Z,8.20
2022-11-05T02:38:07.747Z,8.20
2022-11-05T02:40:46.600Z,8.20
2022-11-05T02:43:25.838Z,8.20
2022-11-05T02:46:09.473Z,8.20
2022-11-05T02:48:47.095Z,8.20
2022-11-05T02:51:23.464Z,8.30
2022-11-05T02:53:57.847Z,8.20
2022-11-05T02:56:29.746Z,8.10
2022-11-05T02:58:57.846Z,8.10
2022-11-05T03:01:26.063Z,8.20
2022-11-05T03:04:00.614Z,8.20
2022-11-05T03:06:57.363Z,8.20
2022-11-05T03:09:57.235Z,8.30
2022-11-05T03:12:44.275Z,8.40
2022-11-05T03:15:25.383Z,8.40
2022-11-05T03:18:03.131Z,8.40
2022-11-05T03:20:38.400Z,8.40
2022-11-05T03:23:13.640Z,8.30
2022-11-05T03:25:47.352Z,8.30
2022-11-05T03:28:18.000Z,8.20
2022-11-05T03:30:46.980Z,8.20
2022-11-05T03:33:20.336Z,8.20
2022-11-05T03:35:54.536Z,8.20
2022-11-05T03:38:27.043Z,8.20
2022-11-05T03:40:58.725Z,8.20
2022-11-05T03:43:31.360Z,8.20
2022-11-05T03:46:03.300Z,8.30
2022-11-05T03:48:32.654Z,8.20
2022-11-05T03:51:08.036Z,8.20
2022-11-05T03:53:43.197Z,8.10
2022-11-05T03:56:15.921Z,8.00
2022-11-05T03:58:45.263Z,7.90
2022-11-05T04:01:13.825Z,7.70
2022-11-05T04:03:42.053Z,7.70
2022-11-05T04:06:29.076Z,7.70
2022-11-05T04:09:14.613Z,7.70
2022-11-05T04:12:00.229Z,7.80
2022-11-05T04:14:28.606Z,7.80
2022-11-05T04:17:09.423Z,7.80
2022-11-05T04:19:57.036Z,7.80
2022-11-05T04:22:45.224Z,7.90
2022-11-05T04:25:14.042Z,7.80
2022-11-05T04:27:42.375Z,7.90
2022-11-05T04:30:19.468Z,7.90
2022-11-05T04:33:03.604Z,7.90
2022-11-05T04:35:33.402Z,8.00
2022-11-05T04:38:03.142Z,8.00
2022-11-05T04:40:31.628Z,8.00
2022-11-05T04:43:00.137Z,8.00
2022-11-05T04:45:30.441Z,8.00
2022-11-05T04:47:58.542Z,8.00
2022-11-05T04:50:26.648Z,8.00
2022-11-05T04:52:54.983Z,7.90
2022-11-05T04:55:24.690Z,8.00
2022-11-05T04:57:54.131Z,7.90
2022-11-05T05:00:23.850Z,7.90
2022-11-05T05:02:52.044Z,8.00
2022-11-05T05:05:21.313Z,7.90
2022-11-05T05:07:49.599Z,7.90
2022-11-05T05:10:17.847Z,7.80
2022-11-05T05:12:48.467Z,7.90
2022-11-05T05:15:17.108Z,7.80
2022-11-05T05:17:45.217Z,7.90
2022-11-05T05:20:31.233Z,7.90
2022-11-05T05:22:59.594Z,7.80
2022-11-05T05:25:27.696Z,7.80
2022-11-05T05:27:59.824Z,7.70
2022-11-05T05:30:28.032Z,7.70
2022-11-05T05:32:56.126Z,7.70
2022-11-05T05:35:24.386Z,7.70
2022-11-05T05:37:56.681Z,7.70
2022-11-05T05:40:25.139Z,7.60
2022-11-05T05:42:55.350Z,7.60
2022-11-05T05:45:25.083Z,7.70
2022-11-05T05:47:55.643Z,7.60
2022-11-05T05:50:23.797Z,7.50
2022-11-05T05:52:52.159Z,7.40
2022-11-05T05:55:20.256Z,7.40
2022-11-05T05:57:48.348Z,7.30
2022-11-05T06:00:17.065Z,7.10
2022-11-05T06:02:46.644Z,7.00
2022-11-05T06:05:14.986Z,6.80
2022-11-05T06:07:43.259Z,6.60
2022-11-05T06:10:11.649Z,6.50
2022-11-05T06:12:39.904Z,6.40
2022-11-05T06:15:09.055Z,6.40
2022-11-05T06:17:37.227Z,6.40
2022-11-05T06:20:09.791Z,6.60
2022-11-05T06:22:38.320Z,6.50
2022-11-05T06:25:07.573Z,6.50
2022-11-05T06:27:36.807Z,6.40
2022-11-05T06:30:05.994Z,6.30
2022-11-05T06:32:34.079Z,6.20
2022-11-05T06:35:02.289Z,6.10
2022-11-05T06:37:33.526Z,6.20
2022-11-05T06:40:02.611Z,6.30
2022-11-05T06:42:30.995Z,6.40
2022-11-05T06:44:59.168Z,6.30
2022-11-05T06:47:27.331Z,6.30
2022-11-05T06:49:57.356Z,6.30
2022-11-05T06:52:27.258Z,6.40
2022-11-05T06:54:56.797Z,6.60
2022-11-05T06:57:25.002Z,6.60
2022-11-05T06:59:58.738Z,6.60
2022-11-05T07:02:29.041Z,6.60
2022-11-05T07:04:57.177Z,6.60
2022-11-05T07:07:25.308Z,6.70
2022-11-05T07:09:53.662Z,6.80
2022-11-05T07:12:23.369Z,6.90
2022-11-05T07:14:51.551Z,7.00
2022-11-05T07:17:20.017Z,7.10
2022-11-05T07:19:48.174Z,7.20
2022-11-05T07:22:16.415Z,7.20
2022-11-05T07:24:47.216Z,7.50
2022-11-05T07:27:15.362Z,8.20
2022-11-05T07:29:45.101Z,9.10
2022-11-05T07:32:13.262Z,9.80
2022-11-05T07:34:41.551Z,10.60
2022-11-05T07:37:10.158Z,11.40
2022-11-05T07:39:38.271Z,12.00
2022-11-05T07:42:06.600Z,12.60
2022-11-05T07:44:35.011Z,13.00
2022-11-05T07:47:04.604Z,13.40
2022-11-05T07:49:32.676Z,13.70
2022-11-05T07:52:01.021Z,13.80
2022-11-05T07:54:29.203Z,14.10
2022-11-05T07:56:57.322Z,14.50
2022-11-05T07:59:25.490Z,14.90
2022-11-05T08:01:53.614Z,15.20
2022-11-05T08:04:23.372Z,14.90
2022-11-05T08:06:51.656Z,14.40
2022-11-05T08:09:19.794Z,13.80
2022-11-05T08:11:47.925Z,13.20
2022-11-05T08:14:16.374Z,12.80
2022-11-05T08:16:44.447Z,12.40
2022-11-05T08:19:12.715Z,12.20
2022-11-05T08:21:42.573Z,12.10
2022-11-05T08:24:11.150Z,12.00
2022-11-05T08:26:39.289Z,11.70
2022-11-05T08:29:09.410Z,11.50
2022-11-05T08:31:38.159Z,11.20
2022-11-05T08:34:06.299Z,10.80
2022-11-05T08:36:36.082Z,10.60
2022-11-05T08:39:05.668Z,10.40
2022-11-05T08:41:33.723Z,10.40
2022-11-05T08:44:02.031Z,10.30
2022-11-05T08:46:30.120Z,10.10
2022-11-05T08:48:58.640Z,10.00
2022-11-05T08:51:26.815Z,10.00
2022-11-05T08:53:54.946Z,10.10
2022-11-05T08:56:24.650Z,10.10
2022-11-05T08:58:52.980Z,10.00
2022-11-05T09:01:21.192Z,9.80
2022-11-05T09:03:52.471Z,9.70
2022-11-05T09:06:21.045Z,9.60
2022-11-05T09:08:49.200Z,9.50
2022-11-05T09:11:18.191Z,9.30
2022-11-05T09:13:48.025Z,9.30
2022-11-05T09:16:20.732Z,9.20
2022-11-05T09:18:50.192Z,9.10
2022-11-05T09:21:18.549Z,9.10
2022-11-05T09:23:47.529Z,9.00
2022-11-05T09:26:15.934Z,8.90
2022-11-05T09:28:44.449Z,9.10
2022-11-05T09:31:14.889Z,9.20
2022-11-05T09:33:43.333Z,9.20
2022-11-05T09:36:11.772Z,9.20
2022-11-05T09:38:39.918Z,9.20
2022-11-05T09:41:13.980Z,9.20
2022-11-05T09:43:45.624Z,9.20
2022-11-05T09:46:19.952Z,9.30
2022-11-05T09:48:50.924Z,9.30
2022-11-05T09:51:23.856Z,9.40
2022-11-05T09:53:53.726Z,9.40
2022-11-05T09:56:25.165Z,9.60
2022-11-05T09:58:58.575Z,9.70
2022-11-05T10:01:31.947Z,9.80
2022-11-05T10:04:03.876Z,10.00
2022-11-05T10:06:32.158Z,10.00
2022-11-05T10:09:06.564Z,10.10
2022-11-05T10:11:40.857Z,10.30
2022-11-05T10:14:16.068Z,10.40
2022-11-05T10:16:50.046Z,10.50
2022-11-05T10:19:24.332Z,10.60
2022-11-05T10:22:10.965Z,10.60
2022-11-05T10:24:42.164Z,10.70
2022-11-05T10:27:17.626Z,10.70
2022-11-05T10:29:46.635Z,10.80
2022-11-05T10:32:22.880Z,10.80
2022-11-05T10:34:52.565Z,10.90
2022-11-05T10:37:22.712Z,10.90
2022-11-05T10:39:51.048Z,10.90
2022-11-05T10:42:44.087Z,11.00
2022-11-05T10:45:22.340Z,11.10
2022-11-05T10:48:06.298Z,11.10
2022-11-05T10:50:34.410Z,11.20
2022-11-05T10:53:08.320Z,11.20
2022-11-05T10:55:38.597Z,11.30
2022-11-05T10:58:12.140Z,11.30
2022-11-05T11:00:40.960Z,11.40
2022-11-05T11:03:36.320Z,11.50
2022-11-05T11:06:07.829Z,11.60
2022-11-05T11:08:37.816Z,11.70
2022-11-05T11:11:08.955Z,11.80
2022-11-05T11:13:52.713Z,11.80
2022-11-05T11:16:23.182Z,11.90
2022-11-05T11:18:57.183Z,11.80
2022-11-05T11:21:26.356Z,11.90
2022-11-05T11:23:58.809Z,11.90
2022-11-05T11:26:30.012Z,11.90
2022-11-05T11:29:00.954Z,11.90
2022-11-05T11:31:31.246Z,11.80
2022-11-05T11:34:04.312Z,11.90
2022-11-05T11:36:39.572Z,11.90
2022-11-05T11:39:13.355Z,11.90
2022-11-05T11:41:43.976Z,12.00
2022-11-05T11:44:17.349Z,12.00
2022-11-05T11:46:49.540Z,12.00
2022-11-05T11:49:34.476Z,12.10
2022-11-05T11:52:06.063Z,12.00
2022-11-05T11:54:35.451Z,12.00
2022-11-05T11:57:04.136Z,12.00
2022-11-05T12:00:06.585Z,12.00
2022-11-05T12:02:48.299Z,12.00
2022-11-05T12:05:31.652Z,12.00
2022-11-05T12:08:07.835Z,12.00
2022-11-05T12:10:45.631Z,11.90
2022-11-05T12:13:45.871Z,12.00
2022-11-05T12:16:22.604Z,12.10
2022-11-05T12:18:59.062Z,12.10
2022-11-05T12:21:52.120Z,12.20
2022-11-05T12:24:38.343Z,12.20
2022-11-05T12:27:19.804Z,12.10
2022-11-05T12:29:59.154Z,12.10
2022-11-05T12:32:45.277Z,12.10
2022-11-05T12:35:30.875Z,12.00
2022-11-05T12:38:12.458Z,12.20
2022-11-05T12:40:52.544Z,12.20
2022-11-05T12:43:31.296Z,12.30
2022-11-05T12:46:07.667Z,12.40
2022-11-05T12:48:55.778Z,12.20
2022-11-05T12:51:39.239Z,12.20
2022-11-05T12:54:17.572Z,12.20
2022-11-05T12:56:49.459Z,12.20
2022-11-05T12:59:24.156Z,12.20
2022-11-05T13:01:58.886Z,12.30
2022-11-05T13:04:35.458Z,12.20
2022-11-05T13:07:07.817Z,12.20
2022-11-05T13:09:42.637Z,12.30
2022-11-05T13:12:15.753Z,12.40
2022-11-05T13:14:48.083Z,12.40
2022-11-05T13:17:19.587Z,12.20
2022-11-05T13:19:52.031Z,12.20
2022-11-05T13:22:34.358Z,12.30
2022-11-05T13:25:11.643Z,12.30
2022-11-05T13:27:52.158Z,12.40
2022-11-05T13:30:23.330Z,12.40
2022-11-05T13:32:57.699Z,12.40
2022-11-05T13:35:31.054Z,12.30
2022-11-05T13:38:23.239Z,12.30
2022-11-05T13:41:20.264Z,12.30
2022-11-05T13:44:15.116Z,12.40
2022-11-05T13:47:06.438Z,12.40
2022-11-05T13:50:04.109Z,12.40
2022-11-05T13:52:56.001Z,12.40
2022-11-05T13:55:56.504Z,12.50
2022-11-05T13:58:56.151Z,12.50
2022-11-05T14:01:43.488Z,12.50
2022-11-05T14:04:32.412Z,12.50
2022-11-05T14:07:08.806Z,12.50
2022-11-05T14:09:39.085Z,12.50
2022-11-05T14:12:17.542Z,12.50
2022-11-05T14:14:58.412Z,12.50
2022-11-05T14:17:31.946Z,12.40
2022-11-05T14:20:41.750Z,12.40
2022-11-05T14:23:38.424Z,12.40
2022-11-05T14:26:25.553Z,12.40
2022-11-05T14:29:29.226Z,12.50
2022-11-05T14:32:09.564Z,12.50
2022-11-05T14:34:47.368Z,12.40
2022-11-05T14:37:41.424Z,12.40
2022-11-05T14:40:30.284Z,12.40
2022-11-05T14:43:01.557Z,12.40
2022-11-05T14:45:32.309Z,12.40
2022-11-05T14:48:04.046Z,12.40
2022-11-05T14:50:37.020Z,12.40
2022-11-05T14:53:26.392Z,12.40
2022-11-05T14:56:02.140Z,12.50
2022-11-05T14:58:36.630Z,12.40
2022-11-05T15:01:07.071Z,12.30
2022-11-05T15:04:01.935Z,12.30
2022-11-05T15:06:33.137Z,12.30
2022-11-05T15:09:29.201Z,12.40
2022-11-05T15:12:14.841Z,12.40
2022-11-05T15:14:54.218Z,12.30
2022-11-05T15:17:29.706Z,12.30
2022-11-05T15:20:09.097Z,12.30
2022-11-05T15:22:41.577Z,12.30
2022-11-05T15:25:18.721Z,12.20
2022-11-05T15:27:59.164Z,12.10
2022-11-05T15:30:27.873Z,12.00
2022-11-05T15:32:56.090Z,11.90
2022-11-05T15:35:28.790Z,12.00
2022-11-05T15:38:02.026Z,12.00
2022-11-05T15:40:32.761Z,12.00
2022-11-05T15:43:11.457Z,12.10
2022-11-05T15:45:40.284Z,12.00
2022-11-05T15:48:15.826Z,12.00
2022-11-05T15:50:45.701Z,12.10
2022-11-05T15:56:13.904Z,12.10
2022-11-05T15:58:48.262Z,12.00
2022-11-05T16:01:28.027Z,12.00
2022-11-05T16:03:57.971Z,11.90
2022-11-05T16:06:31.179Z,11.80
2022-11-05T16:08:59.447Z,11.70
2022-11-05T16:11:28.360Z,11.70
2022-11-05T16:14:15.060Z,11.70
2022-11-05T16:16:44.161Z,11.70
2022-11-05T16:19:40.545Z,11.60
2022-11-05T16:22:10.590Z,11.70
2022-11-05T16:24:39.162Z,11.70
2022-11-05T16:27:07.593Z,11.80
2022-11-05T16:29:38.020Z,11.70
2022-11-05T16:32:08.261Z,11.70
2022-11-05T16:34:40.682Z,11.70
2022-11-05T16:37:14.646Z,11.70
2022-11-05T16:39:43.057Z,11.60
2022-11-05T16:42:37.924Z,11.40
2022-11-05T16:45:07.087Z,11.40
2022-11-05T16:47:35.266Z,11.50
2022-11-05T16:50:03.694Z,11.40
2022-11-05T16:52:33.147Z,11.40
2022-11-05T16:55:01.222Z,11.50
2022-11-05T16:57:31.314Z,11.40
2022-11-05T17:00:01.501Z,11.40
2022-11-05T17:02:29.917Z,11.30
2022-11-05T17:04:58.199Z,11.30
2022-11-05T17:07:26.586Z,11.20
2022-11-05T17:09:56.343Z,11.20
2022-11-05T17:12:24.487Z,11.10
2022-11-05T17:14:52.900Z,11.20
2022-11-05T17:17:21.052Z,11.10
2022-11-05T17:19:49.301Z,11.20
2022-11-05T17:22:17.648Z,11.10
2022-11-05T17:24:45.980Z,11.00
2022-11-05T17:27:15.861Z,11.00
2022-11-05T17:29:44.201Z,10.80
2022-11-05T17:32:13.170Z,10.80
2022-11-05T17:34:41.441Z,10.70
2022-11-05T17:37:09.811Z,10.70
2022-11-05T17:39:38.085Z,10.70
2022-11-05T17:42:06.251Z,10.60
2022-11-05T17:44:36.021Z,10.80
2022-11-05T17:47:04.144Z,10.70
2022-11-05T17:49:32.410Z,10.60
2022-11-05T17:52:00.800Z,10.70
2022-11-05T17:54:29.249Z,10.70
2022-11-05T17:56:57.509Z,10.70
2022-11-05T17:59:25.691Z,10.80
2022-11-05T18:01:55.221Z,10.80
2022-11-05T18:04:23.478Z,10.80
2022-11-05T18:06:51.629Z,10.80
2022-11-05T18:09:19.794Z,10.80
2022-11-05T18:11:47.968Z,10.90
2022-11-05T18:14:21.314Z,11.00
2022-11-05T18:16:52.384Z,10.90
2022-11-05T18:19:22.036Z,11.00
2022-11-05T18:21:50.138Z,11.00
2022-11-05T18:24:18.351Z,11.00
2022-11-05T18:26:46.471Z,11.10
2022-11-05T18:29:14.793Z,11.10
2022-11-05T18:31:43.097Z,11.10
2022-11-05T18:34:11.539Z,11.20
2022-11-05T18:36:41.358Z,11.20
2022-11-05T18:39:09.769Z,11.10
2022-11-05T18:41:37.903Z,11.20
2022-11-05T18:44:06.692Z,11.20
2022-11-05T18:46:57.229Z,11.30
2022-11-05T18:49:24.775Z,11.20
2022-11-05T18:51:54.783Z,11.30
2022-11-05T18:54:23.112Z,11.30
2022-11-05T18:56:51.319Z,11.30
2022-11-05T18:59:36.730Z,11.30
2022-11-05T19:02:06.969Z,11.20
2022-11-05T19:04:36.743Z,11.10
2022-11-05T19:07:07.053Z,11.20
2022-11-05T19:09:36.053Z,11.10
2022-11-05T19:12:05.150Z,11.10
2022-11-05T19:14:33.366Z,11.10
2022-11-05T19:17:02.565Z,10.90
2022-11-05T19:19:31.172Z,10.80
2022-11-05T19:21:59.385Z,10.80
2022-11-05T19:24:29.123Z,10.80
2022-11-05T19:26:57.578Z,10.80
2022-11-05T19:29:25.852Z,10.80
2022-11-05T19:31:54.029Z,10.90
2022-11-05T19:34:22.303Z,10.80
2022-11-05T19:36:50.448Z,10.90
2022-11-05T19:39:18.628Z,10.80
2022-11-05T19:41:50.148Z,10.70
2022-11-05T19:44:18.439Z,10.70
2022-11-05T19:46:47.032Z,10.80
2022-11-05T19:49:15.276Z,10.80
2022-11-05T19:51:43.812Z,10.90
2022-11-05T19:54:12.127Z,10.90
2022-11-05T19:56:40.274Z,10.80
2022-11-05T19:59:09.889Z,10.80
2022-11-05T20:01:38.518Z,10.70
2022-11-05T20:04:06.954Z,10.80
2022-11-05T20:06:38.657Z,10.80
2022-11-05T20:09:21.578Z,10.80
2022-11-05T20:11:50.140Z,10.80
2022-11-05T20:14:19.770Z,10.70
2022-11-05T20:16:48.361Z,10.70
2022-11-05T20:19:18.643Z,10.60
2022-11-05T20:21:47.363Z,10.70
2022-11-05T20:24:23.343Z,10.70
2022-11-05T20:26:53.439Z,10.70
2022-11-05T20:29:23.432Z,10.70
2022-11-05T20:31:52.018Z,10.60
2022-11-05T20:34:20.485Z,10.60
2022-11-05T20:36:48.565Z,10.70
2022-11-05T20:39:16.967Z,10.70
2022-11-05T20:41:45.416Z,10.70
2022-11-05T20:44:13.576Z,10.70
2022-11-05T20:46:43.159Z,10.70
2022-11-05T20:49:11.371Z,10.70
2022-11-05T20:51:39.543Z,10.70
2022-11-05T20:54:07.913Z,10.80
2022-11-05T20:56:36.387Z,10.80
2022-11-05T20:59:05.814Z,10.80
2022-11-05T21:01:35.477Z,10.80
2022-11-05T21:04:05.637Z,10.90
2022-11-05T21:06:34.929Z,11.00
2022-11-05T21:09:04.132Z,11.00
2022-11-05T21:11:56.355Z,11.00
2022-11-05T21:14:24.666Z,10.90
2022-11-05T21:16:53.184Z,10.90
2022-11-05T21:19:24.029Z,10.90
2022-11-05T21:21:52.185Z,10.90
2022-11-05T21:24:20.323Z,10.90
2022-11-05T21:26:49.988Z,10.90
2022-11-05T21:29:19.222Z,10.90
2022-11-05T21:31:47.646Z,10.90
2022-11-05T21:34:17.053Z,10.90
2022-11-05T21:36:47.128Z,10.80
2022-11-05T21:39:15.472Z,10.80
2022-11-05T21:41:43.721Z,10.70
2022-11-05T21:44:11.925Z,10.70
2022-11-05T21:46:40.048Z,10.70
2022-11-05T21:49:09.530Z,10.70
2022-11-05T21:51:55.141Z,10.80
2022-11-05T21:54:42.361Z,10.80
2022-11-05T21:57:33.006Z,10.80
2022-11-05T22:00:02.067Z,10.80
2022-11-05T22:02:30.795Z,10.80
2022-11-05T22:05:00.125Z,10.80
2022-11-05T22:07:30.775Z,10.70
2022-11-05T22:10:00.858Z,10.80
2022-11-05T22:12:29.645Z,10.80
2022-11-05T22:14:57.891Z,10.80
2022-11-05T22:17:26.646Z,10.80
2022-11-05T22:19:56.265Z,10.70
2022-11-05T22:22:24.370Z,10.60
2022-11-05T22:24:52.476Z,10.60
2022-11-05T22:27:22.786Z,10.80
2022-11-05T22:29:51.337Z,10.80
2022-11-05T22:32:19.910Z,10.80
2022-11-05T22:34:49.601Z,10.60
2022-11-05T22:37:17.753Z,10.70
2022-11-05T22:39:45.930Z,10.80
2022-11-05T22:42:14.309Z,10.80
2022-11-05T22:44:44.029Z,10.80
2022-11-05T22:47:14.053Z,10.80
2022-11-05T22:49:42.569Z,10.80
2022-11-05T22:52:10.783Z,10.80
2022-11-05T22:54:39.596Z,10.80
2022-11-05T22:57:08.627Z,10.80
2022-11-05T22:59:36.881Z,10.80
2022-11-05T23:02:09.807Z,10.70
2022-11-05T23:04:39.128Z,10.80
2022-11-05T23:07:27.708Z,10.70
2022-11-05T23:10:14.196Z,10.80
2022-11-05T23:12:44.558Z,10.80
2022-11-05T23:15:34.490Z,10.90
2022-11-05T23:18:21.372Z,10.80
2022-11-05T23:21:07.352Z,10.80
2022-11-05T23:23:53.440Z,10.80
2022-11-05T23:26:39.033Z,10.70
2022-11-05T23:29:07.175Z,10.70
2022-11-05T23:31:52.662Z,10.80
2022-11-05T23:34:22.539Z,10.80
2022-11-05T23:37:07.905Z,10.80
2022-11-05T23:39:42.213Z,10.90
2022-11-05T23:42:28.793Z,10.90
2022-11-05T23:45:15.020Z,10.90
2022-11-05T23:48:01.258Z,10.90
2022-11-05T23:50:35.669Z,10.90
2022-11-05T23:53:08.236Z,11.00
2022-11-05T23:55:36.867Z,10.90
2022-11-05T23:58:05.015Z,10.90
